Gesves, Belgium
Current Conditions -  °F | °C
As of 3:25 PM on Tuesday 21 Oct 2014 (Local Time) from EBFS Reporting Station
Broken Clouds Broken Clouds  
Wind Chill: 52°   Ceiling: 2600
Heat Index: 52°   Visibility: 6mi
Dew Point: 48°   Wind: 22mph
Humidity: 88%   Direction: 260°W
Pressure: 29.65"   Gusts: NA
Location:  50.4°N, 5.07°E
Report Text: EBFS 211325Z 26019KT 9999 SCT009 SCT014 BKN026 11/09 Q1004 GRN WHT TEMPO GRN
Loading
Personal Weather Stations






























Interactive Weather Map
Tropical Storm Tracking
New forecast layout! Learn more

10-Day Weather Forecast

Advertisements
Track Severe Weather on mobile